Terminal Aerodrome Forecast
Issued by NWS New Orleans/Baton Rouge, LA

Home | Current Version | Previous Version | Text Only | Print | Product List | Glossary On
Versions: 1 2 3 4 5 6 7 8 9 10 11 12
000
FTUS44 KLIX 240520
TAFNEW
TAF
KNEW 240520Z 2406/2506 15006KT P6SM SKC
     FM240900 00000KT P6SM FEW010 SCT110
     FM241300 06005KT P6SM SCT010 BKN110 PROB30 2415/2418 4SM -TSRA
      BKN010CB
     FM241800 09006KT P6SM -SHRA VCTS SCT015CB BKN100
     FM242300 15006KT P6SM -SHRA SCT020 BKN100
     FM250000 16006KT P6SM SCT020 BKN100 PROB30 2500/2506 4SM -TSRA
      BKN015CB BKN020=

USA.gov is the U.S. government's official web portal to all federal, state and local government web resources and services.